CheckWX is a tool to help pilots better visualize weather data.  It is not intended as a substitute for an official pre-flight weather briefing.

06:56:01 UTC

CYXJ METAR
Fort St John Airport
Fort St.John, Canada
Current

56 mins ago

CYXJ 280600Z 24009KT 15SM FEW140 M03/M09 A2976 RMK AC2 SLP118
Observed
Jan-28 @ 06:00 UTC
Wind
  • 240° at 9 KTS
Visibility
15 SM
Flight Rules
VFR
Cloud Levels
  • Few at 14,000' AGL
Temperature
-3°C / 27°F
Dewpoint
-9°C / 16°F
Humidity
64%
Altimeter
29.76" Hg
Pressure
1007.82 hPa
Previous

2 hours ago

CYXJ 280500Z 24008KT 15SM FEW210 M03/M09 A2977 RMK CI1 SLP121
Observed
Jan-28 @ 05:00 UTC
Wind
  • 240° at 8 KTS
Visibility
15 SM
Flight Rules
VFR
Cloud Levels
  • Few at 21,000' AGL
Temperature
-3°C / 27°F
Dewpoint
-9°C / 16°F
Humidity
64%
Altimeter
29.77" Hg
Pressure
1008.12 hPa
Previous

3 hours ago

CYXJ 280400Z 23008KT 15SM FEW210 M02/M09 A2977 RMK CI1 SLP123
Observed
Jan-28 @ 04:00 UTC
Wind
  • 230° at 8 KTS
Visibility
15 SM
Flight Rules
VFR
Cloud Levels
  • Few at 21,000' AGL
Temperature
-2°C / 28°F
Dewpoint
-9°C / 16°F
Humidity
59%
Altimeter
29.77" Hg
Pressure
1008.12 hPa